Time;durP1;ratioP1;P1;durP2;ratioP2;P2;SDS_P1;SDS_P2;PMS_P1;PMS_P2;Temp;Humidity;BMP_temperature;BMP_pressure;BME280_temperature;BME280_humidity;BME280_pressure;Samples;Min_cycle;Max_cycle;Signal;HPM_P1;HPM_P2
2021/01/15 00:02:00;;;;;;;12.80;8.07;;;;;;;-1.37;85.08;96680.16;5034429;28;20711;-65
2021/01/15 00:04:25;;;;;;;11.07;8.53;;;;;;;-1.31;85.51;96683.88;5051528;28;20185;-68
2021/01/15 00:06:56;;;;;;;10.07;7.53;;;;;;;-1.37;84.63;96682.72;5034564;28;20200;-65
2021/01/15 00:09:22;;;;;;;11.00;7.40;;;;;;;-1.43;85.18;96678.19;5026911;28;20216;-68
2021/01/15 00:11:47;;;;;;;11.43;8.10;;;;;;;-1.33;84.90;96685.78;5051258;28;20663;-66
2021/01/15 00:14:13;;;;;;;13.13;8.63;;;;;;;-1.36;84.62;96688.69;5034276;28;20193;-65
2021/01/15 00:16:38;;;;;;;11.63;7.30;;;;;;;-1.50;84.47;96684.91;5050256;28;20220;-66
2021/01/15 00:19:03;;;;;;;10.20;7.60;;;;;;;-1.41;84.84;96690.91;5051577;28;20661;-66
2021/01/15 00:21:32;;;;;;;10.17;6.57;;;;;;;-1.55;84.67;96682.00;5050432;28;20192;-65
2021/01/15 00:23:59;;;;;;;9.53;7.97;;;;;;;-1.38;83.85;96683.69;5050977;28;20308;-66
2021/01/15 00:26:27;;;;;;;10.27;7.30;;;;;;;-1.45;83.91;96692.19;5051276;28;20222;-67
2021/01/15 00:28:53;;;;;;;9.50;7.43;;;;;;;-1.33;83.09;96691.72;5018003;28;20186;-66
2021/01/15 00:31:19;;;;;;;8.17;7.00;;;;;;;-1.38;83.67;96693.97;5051481;28;20206;-66
2021/01/15 00:33:45;;;;;;;11.20;7.40;;;;;;;-1.39;83.63;96688.97;5051325;28;20338;-66
2021/01/15 00:36:11;;;;;;;10.13;7.23;;;;;;;-1.32;82.61;96688.22;5051956;28;20647;-66
2021/01/15 00:38:37;;;;;;;12.77;7.93;;;;;;;-1.39;83.46;96682.06;5051349;28;20296;-66
2021/01/15 00:41:05;;;;;;;10.57;6.47;;;;;;;-1.33;82.61;96688.34;5051820;28;20628;-66
2021/01/15 00:43:31;;;;;;;8.60;5.33;;;;;;;-1.51;81.93;96700.50;5050837;28;20206;-65
2021/01/15 00:45:56;;;;;;;10.87;6.30;;;;;;;-1.48;82.33;96695.03;5034229;28;20239;-66
2021/01/15 00:48:22;;;;;;;8.97;5.90;;;;;;;-1.37;81.46;96694.78;5051635;28;20721;-66
2021/01/15 00:50:47;;;;;;;12.50;5.83;;;;;;;-1.47;81.49;96700.03;5050644;28;20605;-66
2021/01/15 00:53:13;;;;;;;8.17;5.70;;;;;;;-1.52;81.53;96699.69;5051858;28;20556;-65
2021/01/15 00:55:39;;;;;;;7.03;5.33;;;;;;;-1.56;81.43;96697.59;5049681;28;20213;-65
2021/01/15 00:58:04;;;;;;;7.43;5.63;;;;;;;-1.48;80.91;96703.56;5051539;28;20748;-66
2021/01/15 01:00:30;;;;;;;8.40;5.10;;;;;;;-1.57;80.71;96706.25;5050661;28;20535;-66
2021/01/15 01:02:56;;;;;;;6.20;4.77;;;;;;;-1.63;81.06;96702.53;5050268;28;20178;-65
2021/01/15 01:05:22;;;;;;;7.27;4.87;;;;;;;-1.53;81.10;96700.66;5051494;28;20190;-65
2021/01/15 01:07:49;;;;;;;6.57;4.97;;;;;;;-1.49;79.98;96698.56;5031944;28;20182;-65
2021/01/15 01:10:15;;;;;;;6.67;4.93;;;;;;;-1.37;79.83;96712.75;5051088;28;20178;-65
2021/01/15 01:12:42;;;;;;;7.50;4.50;;;;;;;-1.53;79.29;96716.06;5049076;28;20229;-65
2021/01/15 01:15:12;;;;;;;8.73;5.00;;;;;;;-1.57;79.12;96699.34;5016948;28;20197;-66
2021/01/15 01:17:38;;;;;;;6.30;4.20;;;;;;;-1.48;79.25;96693.28;5050265;28;20185;-65
2021/01/15 01:20:05;;;;;;;5.77;3.90;;;;;;;-1.49;77.95;96699.38;5049741;28;20276;-65
2021/01/15 01:22:31;;;;;;;4.73;4.03;;;;;;;-1.50;78.04;96712.38;5049011;28;20596;-66
2021/01/15 01:24:56;;;;;;;6.40;3.50;;;;;;;-1.45;77.41;96723.03;5050518;28;20197;-66
2021/01/15 01:27:22;;;;;;;5.03;3.67;;;;;;;-1.39;76.69;96709.53;5033364;28;20610;-67
2021/01/15 01:29:48;;;;;;;4.33;3.60;;;;;;;-1.43;77.07;96719.31;5032491;28;20186;-65
2021/01/15 01:32:13;;;;;;;5.00;3.37;;;;;;;-1.35;77.04;96721.13;5033399;28;20574;-65
2021/01/15 01:34:38;;;;;;;4.37;3.33;;;;;;;-1.31;77.48;96717.28;5050028;28;20210;-66
2021/01/15 01:37:04;;;;;;;3.80;3.30;;;;;;;-1.40;76.40;96706.19;5050705;28;20235;-66
2021/01/15 01:39:29;;;;;;;4.83;3.27;;;;;;;-1.34;76.38;96718.38;5050010;28;20185;-65
2021/01/15 01:41:55;;;;;;;3.40;3.10;;;;;;;-1.40;76.08;96725.94;5049767;28;20201;-66
2021/01/15 01:44:20;;;;;;;4.10;3.13;;;;;;;-1.52;75.69;96727.97;5033465;28;20194;-64
2021/01/15 01:46:47;;;;;;;3.60;3.30;;;;;;;-1.60;76.71;96725.34;5050233;28;20333;-64
2021/01/15 01:49:14;;;;;;;3.30;3.00;;;;;;;-1.54;75.60;96729.06;5050452;28;20235;-65
2021/01/15 01:51:41;;;;;;;2.97;2.67;;;;;;;-1.51;75.06;96727.00;5033505;28;20202;-65
2021/01/15 01:54:08;;;;;;;3.43;2.90;;;;;;;-1.44;75.75;96732.31;5054221;28;20214;-65
2021/01/15 01:56:34;;;;;;;3.57;2.93;;;;;;;-1.39;74.96;96741.19;5054418;28;20186;-65
2021/01/15 01:59:00;;;;;;;3.67;3.07;;;;;;;-1.51;75.14;96744.19;5037489;28;20186;-65
2021/01/15 02:01:26;;;;;;;4.60;3.07;;;;;;;-1.59;74.44;96741.56;5053163;28;20174;-67
2021/01/15 02:04:02;;;;;;;3.67;2.97;;;;;;;-1.67;75.31;96752.59;5036531;28;20185;-65
2021/01/15 02:06:28;;;;;;;5.57;3.43;;;;;;;-1.57;74.81;96748.19;5052894;28;20268;-67
2021/01/15 02:08:55;;;;;;;3.10;2.80;;;;;;;-1.44;74.85;96751.13;5037087;28;20673;-65
2021/01/15 02:11:32;;;;;;;3.57;2.97;;;;;;;-1.63;75.09;96747.97;5054393;28;20209;-66
2021/01/15 02:14:23;;;;;;;2.80;2.60;;;;;;;-1.65;74.42;96747.31;5054900;28;20253;-65
2021/01/15 02:16:56;;;;;;;3.13;2.60;;;;;;;-1.65;74.94;96749.88;5035830;28;20189;-66
2021/01/15 02:19:36;;;;;;;3.13;2.57;;;;;;;-1.70;73.95;96758.84;5054389;28;20178;-66
2021/01/15 02:22:27;;;;;;;2.60;2.37;;;;;;;-1.76;74.28;96758.63;5054158;28;20666;-66
2021/01/15 02:24:58;;;;;;;2.77;2.47;;;;;;;-1.74;73.80;96757.53;5053761;28;20216;-66
2021/01/15 02:27:42;;;;;;;4.67;2.70;;;;;;;-1.70;73.47;96756.28;5054197;28;20191;-67
2021/01/15 02:30:26;;;;;;;5.17;2.60;;;;;;;-1.74;73.77;96760.13;5053130;28;20277;-67
2021/01/15 02:33:29;;;;;;;2.90;2.57;;;;;;;-1.79;73.67;96757.19;5053614;28;20206;-67
2021/01/15 02:36:25;;;;;;;2.70;2.50;;;;;;;-1.74;74.24;96772.97;5039365;28;20546;-66
2021/01/15 02:38:59;;;;;;;3.23;2.37;;;;;;;-1.87;73.65;96758.88;5053876;28;20646;-67
2021/01/15 02:41:28;;;;;;;5.30;2.50;;;;;;;-1.86;73.67;96763.88;5052624;28;20185;-67
2021/01/15 02:43:57;;;;;;;2.50;2.10;;;;;;;-1.77;73.56;96764.72;5054338;28;20190;-65
2021/01/15 02:46:44;;;;;;;2.43;2.23;;;;;;;-1.90;73.55;96764.34;5036347;28;20267;-65
2021/01/15 02:49:11;;;;;;;3.57;2.67;;;;;;;-1.83;73.87;96770.47;5053748;28;20665;-66
2021/01/15 02:51:40;;;;;;;2.80;2.37;;;;;;;-1.86;73.55;96763.06;5053186;28;20251;-66
2021/01/15 02:54:05;;;;;;;2.90;2.50;;;;;;;-1.81;74.12;96779.66;5036129;28;20236;-66
2021/01/15 02:56:31;;;;;;;3.03;2.40;;;;;;;-1.89;74.11;96774.44;5053350;28;20186;-66
2021/01/15 02:58:56;;;;;;;4.57;2.63;;;;;;;-1.92;74.20;96771.38;5036005;28;20189;-65
2021/01/15 03:01:22;;;;;;;3.63;2.60;;;;;;;-1.85;73.42;96770.63;5036130;28;20198;-66
2021/01/15 03:03:53;;;;;;;4.40;2.33;;;;;;;-1.91;72.91;96770.41;5051969;28;20178;-65
2021/01/15 03:06:22;;;;;;;2.57;2.37;;;;;;;-1.85;73.19;96772.41;5036599;28;20228;-66
2021/01/15 03:08:48;;;;;;;3.10;2.47;;;;;;;-1.83;73.85;96770.47;5053045;28;20196;-67
2021/01/15 03:11:15;;;;;;;2.73;2.23;;;;;;;-1.97;73.78;96773.59;5053134;28;20234;-66
2021/01/15 03:13:43;;;;;;;1.87;1.77;;;;;;;-1.89;73.31;96768.50;5052007;28;20315;-66
2021/01/15 03:16:10;;;;;;;3.67;2.20;;;;;;;-2.00;73.80;96764.41;5052331;28;20304;-66
2021/01/15 03:18:37;;;;;;;4.73;2.50;;;;;;;-1.95;73.54;96771.69;5052785;28;20548;-67
2021/01/15 03:21:03;;;;;;;2.43;2.23;;;;;;;-1.99;73.36;96778.03;5053256;28;20265;-67
2021/01/15 03:23:34;;;;;;;3.03;2.33;;;;;;;-2.03;73.96;96779.31;5034886;28;20277;-67
2021/01/15 03:26:00;;;;;;;2.83;2.30;;;;;;;-2.08;74.34;96776.38;5033976;28;20240;-66
2021/01/15 03:28:26;;;;;;;3.17;2.00;;;;;;;-2.13;73.84;96780.22;5053285;28;20182;-68
2021/01/15 03:30:51;;;;;;;2.37;2.17;;;;;;;-2.18;74.32;96784.97;5052303;28;20224;-67
2021/01/15 03:33:17;;;;;;;4.47;2.50;;;;;;;-2.15;74.15;96778.72;5053146;28;20255;-67
2021/01/15 03:35:42;;;;;;;2.53;2.33;;;;;;;-2.21;74.35;96784.44;5051901;28;20661;-67
2021/01/15 03:38:12;;;;;;;2.77;2.57;;;;;;;-2.22;74.93;96787.97;5053128;28;20662;-67
2021/01/15 03:40:43;;;;;;;4.70;3.00;;;;;;;-2.12;74.93;96788.72;5034518;28;20531;-67
2021/01/15 03:43:16;;;;;;;3.90;3.30;;;;;;;-2.05;75.66;96794.03;5035281;28;20182;-67
2021/01/15 03:45:43;;;;;;;5.23;3.50;;;;;;;-2.05;75.80;96788.91;5034633;28;20182;-67
2021/01/15 03:48:09;;;;;;;4.87;3.50;;;;;;;-2.04;75.10;96793.09;5051815;28;20229;-67
2021/01/15 03:50:36;;;;;;;3.67;3.20;;;;;;;-2.30;75.99;96804.13;5051889;28;20248;-67
2021/01/15 03:53:01;;;;;;;3.93;2.70;;;;;;;-2.35;75.41;96793.47;5052284;28;20671;-66
2021/01/15 03:55:27;;;;;;;5.00;3.10;;;;;;;-2.28;74.56;96797.06;5052844;28;20185;-68
2021/01/15 03:57:52;;;;;;;3.67;3.13;;;;;;;-2.25;75.65;96798.53;5034763;28;20189;-66
2021/01/15 04:00:18;;;;;;;4.53;3.57;;;;;;;-2.12;75.32;96802.34;5052205;28;20189;-67
2021/01/15 04:02:44;;;;;;;6.13;4.03;;;;;;;-2.07;75.75;96804.47;5034066;28;20671;-67
2021/01/15 04:05:11;;;;;;;3.60;3.30;;;;;;;-1.99;75.23;96806.28;5053085;28;20244;-67
2021/01/15 04:07:37;;;;;;;3.60;3.30;;;;;;;-2.09;75.52;96808.94;5034465;28;20261;-67
2021/01/15 04:10:04;;;;;;;4.70;3.50;;;;;;;-2.18;75.41;96810.66;5034912;28;20182;-67
2021/01/15 04:12:30;;;;;;;4.00;3.57;;;;;;;-2.10;76.13;96815.03;5051782;28;20189;-69
2021/01/15 04:14:56;;;;;;;3.80;3.23;;;;;;;-2.19;76.47;96821.06;5052889;28;20190;-67
2021/01/15 04:17:24;;;;;;;4.37;3.53;;;;;;;-2.06;75.52;96818.13;5052857;28;20193;-67
2021/01/15 04:19:50;;;;;;;4.63;3.40;;;;;;;-2.02;75.52;96822.81;5052187;28;20236;-67
2021/01/15 04:22:15;;;;;;;4.50;3.03;;;;;;;-2.12;76.09;96822.09;5052498;28;20190;-67
2021/01/15 04:24:41;;;;;;;3.80;3.10;;;;;;;-2.03;75.48;96828.09;5051197;28;20197;-67
2021/01/15 04:27:06;;;;;;;4.30;2.90;;;;;;;-2.11;75.64;96831.38;5050990;28;20232;-67
2021/01/15 04:29:32;;;;;;;4.40;2.63;;;;;;;-2.07;76.14;96829.34;5051244;28;20203;-67
2021/01/15 04:31:57;;;;;;;3.37;2.73;;;;;;;-2.10;76.55;96833.81;5052121;28;20556;-67
2021/01/15 04:34:23;;;;;;;2.80;2.60;;;;;;;-2.02;76.03;96837.41;5052053;28;20194;-67
2021/01/15 04:36:49;;;;;;;4.73;2.87;;;;;;;-2.06;75.79;96839.44;5033440;28;20189;-66
2021/01/15 04:39:14;;;;;;;3.10;2.80;;;;;;;-2.15;76.28;96842.91;5034186;28;20185;-66
2021/01/15 04:41:42;;;;;;;4.50;3.60;;;;;;;-2.12;76.38;96837.50;5049464;28;20190;-66
2021/01/15 04:44:08;;;;;;;5.07;2.90;;;;;;;-2.19;76.63;96847.53;5034027;28;20658;-67
2021/01/15 04:46:35;;;;;;;3.27;2.90;;;;;;;-2.21;76.63;96851.19;5051276;28;20182;-68
2021/01/15 04:49:03;;;;;;;3.43;3.10;;;;;;;-2.27;76.70;96852.56;5052032;28;20186;-66
2021/01/15 04:51:29;;;;;;;4.07;3.03;;;;;;;-2.20;76.49;96853.63;5051164;28;20202;-68
2021/01/15 04:54:06;;;;;;;3.50;2.80;;;;;;;-2.27;77.18;96852.56;5032990;28;20931;-67
2021/01/15 04:56:34;;;;;;;5.27;3.30;;;;;;;-2.19;76.67;96862.13;5051231;28;20182;-68
2021/01/15 04:59:03;;;;;;;3.10;2.80;;;;;;;-2.02;75.95;96856.19;5049979;28;20263;-66
2021/01/15 05:01:45;;;;;;;4.40;2.93;;;;;;;-2.06;76.17;96859.97;5051710;28;20192;-67
2021/01/15 05:04:13;;;;;;;4.17;3.10;;;;;;;-2.24;76.68;96861.75;5049977;28;20194;-67
2021/01/15 05:06:51;;;;;;;3.30;3.00;;;;;;;-2.34;76.96;96864.34;5050582;28;20269;-67
2021/01/15 05:09:21;;;;;;;4.93;3.20;;;;;;;-2.39;77.58;96870.88;5051408;28;20216;-66
2021/01/15 05:11:48;;;;;;;4.50;3.50;;;;;;;-2.34;76.43;96876.41;5050258;28;20190;-66
2021/01/15 05:14:19;;;;;;;3.80;3.23;;;;;;;-2.52;77.68;96860.97;5049804;28;20182;-67
2021/01/15 05:16:47;;;;;;;3.57;3.17;;;;;;;-2.46;77.74;96870.66;5050000;28;20182;-66
2021/01/15 05:19:13;;;;;;;4.07;3.30;;;;;;;-2.34;77.18;96876.41;5051381;28;20216;-66
2021/01/15 05:21:40;;;;;;;3.63;3.27;;;;;;;-2.51;76.69;96878.00;5050120;28;20185;-66
2021/01/15 05:24:07;;;;;;;3.73;2.97;;;;;;;-2.44;77.58;96879.00;5049992;28;20553;-65
2021/01/15 05:26:34;;;;;;;4.10;3.10;;;;;;;-2.46;78.19;96880.13;5031643;28;20312;-68
2021/01/15 05:29:01;;;;;;;4.13;3.40;;;;;;;-2.41;77.50;96883.06;5049790;28;20399;-67
2021/01/15 05:31:27;;;;;;;6.60;3.77;;;;;;;-2.42;77.54;96889.94;5050568;28;20633;-67
2021/01/15 05:34:07;;;;;;;6.47;3.70;;;;;;;-2.46;78.27;96893.75;5050310;28;20252;-66
2021/01/15 05:36:34;;;;;;;5.27;4.07;;;;;;;-2.44;78.29;96909.81;5034669;28;20181;-68
2021/01/15 05:39:15;;;;;;;4.20;3.80;;;;;;;-2.48;77.38;96907.66;5021612;28;20620;-65
2021/01/15 05:41:42;;;;;;;5.80;3.90;;;;;;;-2.66;78.02;96910.19;5049770;28;20519;-66
2021/01/15 05:44:08;;;;;;;5.23;4.17;;;;;;;-2.60;79.11;96905.28;5033602;28;20205;-65
2021/01/15 05:46:34;;;;;;;6.70;4.40;;;;;;;-2.69;79.19;96908.72;5049884;28;20177;-68
2021/01/15 05:49:11;;;;;;;5.77;4.53;;;;;;;-2.88;80.52;96915.66;5051109;28;20190;-65
2021/01/15 05:51:38;;;;;;;4.57;4.03;;;;;;;-2.82;80.26;96912.53;5050319;28;20194;-65
2021/01/15 05:54:06;;;;;;;5.43;4.40;;;;;;;-2.94;79.97;96917.03;5050767;28;20540;-65
2021/01/15 05:56:44;;;;;;;6.90;4.30;;;;;;;-3.01;79.38;96927.03;5032961;28;20521;-67
2021/01/15 05:59:19;;;;;;;4.50;4.10;;;;;;;-3.10;79.37;96932.19;5050892;28;20626;-65
2021/01/15 06:01:57;;;;;;;5.93;4.23;;;;;;;-3.19;80.00;96930.44;5050262;28;20187;-65
2021/01/15 06:04:32;;;;;;;6.37;4.70;;;;;;;-3.11;78.99;96928.81;5051036;28;20178;-65
2021/01/15 06:07:09;;;;;;;5.90;4.23;;;;;;;-3.13;79.32;96933.28;5050251;28;20635;-65
2021/01/15 06:09:39;;;;;;;6.50;4.57;;;;;;;-3.22;79.46;96944.34;5049930;28;20186;-67
2021/01/15 06:12:10;;;;;;;6.20;3.87;;;;;;;-3.11;78.11;96953.63;5050497;28;20202;-65
2021/01/15 06:14:48;;;;;;;4.67;4.20;;;;;;;-3.13;77.77;96952.97;5026298;28;20179;-68
2021/01/15 06:17:16;;;;;;;5.90;4.67;;;;;;;-3.13;77.93;96955.53;5036770;28;20583;-65
2021/01/15 06:19:47;;;;;;;5.30;4.33;;;;;;;-3.28;77.94;96955.13;5022463;28;20639;-65
2021/01/15 06:22:49;;;;;;;5.13;4.60;;;;;;;-3.23;77.53;96962.44;5050600;28;20193;-65
2021/01/15 06:25:34;;;;;;;6.17;4.40;;;;;;;-3.34;78.09;96967.69;5031401;28;20253;-65
2021/01/15 06:28:06;;;;;;;6.47;4.30;;;;;;;-3.35;79.45;96972.00;5050742;28;20185;-66
2021/01/15 06:30:34;;;;;;;6.33;4.93;;;;;;;-3.19;78.33;96974.84;5048957;28;20182;-68
2021/01/15 06:33:14;;;;;;;6.67;4.37;;;;;;;-3.11;78.63;96977.50;5049283;28;20194;-66
2021/01/15 06:35:42;;;;;;;5.93;5.00;;;;;;;-3.33;79.05;96990.59;5044425;28;20254;-66
2021/01/15 06:38:09;;;;;;;6.03;4.60;;;;;;;-3.25;78.97;96988.19;5024855;28;20651;-66
2021/01/15 06:40:37;;;;;;;6.30;4.70;;;;;;;-3.29;78.22;96989.41;5036248;28;20183;-70
2021/01/15 06:43:06;;;;;;;5.43;4.67;;;;;;;-3.32;78.52;96986.28;5047417;28;20214;-66
2021/01/15 06:45:41;;;;;;;6.27;4.63;;;;;;;-3.43;78.79;96993.16;5054124;28;20269;-68
2021/01/15 06:48:16;;;;;;;8.90;5.17;;;;;;;-3.26;78.14;96996.00;5038103;28;20185;-69
2021/01/15 06:50:47;;;;;;;5.70;4.73;;;;;;;-3.37;78.40;97000.31;5035372;28;20185;-72
2021/01/15 06:53:26;;;;;;;5.30;4.50;;;;;;;-3.47;79.87;97007.19;5046572;28;20241;-72
2021/01/15 06:55:53;;;;;;;5.90;4.73;;;;;;;-3.32;79.42;97006.78;5042729;28;20193;-67
2021/01/15 06:58:27;;;;;;;6.90;5.03;;;;;;;-3.37;79.33;97014.88;5055689;28;20224;-68
2021/01/15 07:00:58;;;;;;;8.63;5.33;;;;;;;-3.42;80.88;97017.03;5039536;28;20691;-68
2021/01/15 07:03:39;;;;;;;8.00;5.27;;;;;;;-3.29;80.32;97022.72;5050425;28;20186;-67
2021/01/15 07:06:06;;;;;;;6.70;5.40;;;;;;;-3.36;80.69;97027.56;5052809;28;20228;-70
2021/01/15 07:08:31;;;;;;;8.43;5.77;;;;;;;-3.24;80.86;97023.13;5052981;28;20260;-71
2021/01/15 07:10:59;;;;;;;9.37;6.27;;;;;;;-3.28;81.44;97029.44;5053035;28;20312;-69
2021/01/15 07:13:27;;;;;;;7.03;5.50;;;;;;;-3.20;80.73;97032.16;5035367;28;20209;-69
2021/01/15 07:15:54;;;;;;;7.50;5.40;;;;;;;-3.30;81.54;97038.22;5034848;28;20187;-68
2021/01/15 07:18:32;;;;;;;7.87;5.30;;;;;;;-3.24;80.89;97038.50;5053713;28;20185;-70
2021/01/15 07:21:03;;;;;;;8.47;5.73;;;;;;;-3.18;81.40;97045.66;5051840;28;20189;-72
2021/01/15 07:23:47;;;;;;;8.00;5.70;;;;;;;-3.10;81.26;97044.94;5038252;28;20212;-73
2021/01/15 07:26:13;;;;;;;7.47;5.63;;;;;;;-3.11;81.80;97044.16;5053130;28;20770;-72
2021/01/15 07:28:40;;;;;;;8.70;5.93;;;;;;;-3.30;82.04;97045.91;5052346;28;20204;-71
2021/01/15 07:31:07;;;;;;;8.53;6.70;;;;;;;-3.20;82.64;97054.41;5052698;28;20197;-72
2021/01/15 07:33:36;;;;;;;9.90;6.83;;;;;;;-3.10;82.14;97045.78;5052887;28;20182;-75
2021/01/15 07:36:02;;;;;;;8.53;5.93;;;;;;;-3.04;82.26;97049.53;5052092;28;20186;-72
2021/01/15 07:38:28;;;;;;;9.07;6.60;;;;;;;-2.98;81.63;97044.69;5053244;28;20673;-70
2021/01/15 07:40:53;;;;;;;9.53;6.20;;;;;;;-3.11;82.30;97051.03;5052024;28;20190;-71
2021/01/15 07:43:33;;;;;;;11.00;7.70;;;;;;;-3.14;82.86;97051.31;5053094;28;20177;-68
2021/01/15 07:46:00;;;;;;;10.23;7.07;;;;;;;-3.07;82.70;97057.53;5052410;28;20186;-77
2021/01/15 07:48:26;;;;;;;14.27;7.60;;;;;;;-2.89;83.06;97055.06;5034550;28;20178;-72
2021/01/15 07:50:52;;;;;;;14.10;8.07;;;;;;;-3.04;82.77;97055.47;5045330;28;20205;-76
2021/01/15 07:53:22;;;;;;;10.90;7.43;;;;;;;-2.89;82.42;97063.56;5047983;28;20182;-70
2021/01/15 07:55:53;;;;;;;17.30;8.00;;;;;;;-2.93;82.30;97075.03;5033617;28;20268;-76
2021/01/15 07:58:20;;;;;;;11.63;7.40;;;;;;;-2.73;82.45;97066.38;5052773;28;20252;-71
2021/01/15 08:00:48;;;;;;;11.03;7.97;;;;;;;-2.75;83.27;97080.31;5050063;28;20537;-70
2021/01/15 08:03:15;;;;;;;14.67;8.40;;;;;;;-2.68;81.71;97084.75;5034196;28;20190;-68
2021/01/15 08:05:43;;;;;;;12.53;9.07;;;;;;;-2.57;81.98;97081.22;5050838;28;20197;-71
2021/01/15 08:08:19;;;;;;;9.27;7.47;;;;;;;-2.78;81.75;97093.38;5034286;28;20182;-70
2021/01/15 08:10:50;;;;;;;10.33;7.77;;;;;;;-2.87;81.98;97095.00;5049437;28;20173;-72
2021/01/15 08:13:29;;;;;;;11.53;8.03;;;;;;;-2.59;81.72;97098.50;5051856;28;20190;-70
2021/01/15 08:15:56;;;;;;;12.30;8.63;;;;;;;-2.34;81.30;97099.69;5049669;28;21041;-69
2021/01/15 08:18:22;;;;;;;11.50;8.03;;;;;;;-2.56;80.91;97109.28;5050620;28;20174;-70
2021/01/15 08:20:54;;;;;;;9.90;7.67;;;;;;;-2.42;80.31;97109.81;5034063;28;20190;-70
2021/01/15 08:23:25;;;;;;;11.00;7.17;;;;;;;-2.29;79.19;97110.34;5053003;28;20170;-70
2021/01/15 08:26:00;;;;;;;11.23;7.20;;;;;;;-2.50;79.83;97128.47;5035730;28;20450;-68
2021/01/15 08:28:25;;;;;;;8.60;6.47;;;;;;;-2.46;80.05;97129.00;5050597;28;20201;-69
2021/01/15 08:31:03;;;;;;;10.30;7.50;;;;;;;-2.49;80.36;97131.84;5048662;28;20186;-70
2021/01/15 08:33:29;;;;;;;10.40;6.77;;;;;;;-2.53;80.28;97134.69;5040727;28;20170;-69
2021/01/15 08:35:59;;;;;;;10.07;7.10;;;;;;;-2.70;80.54;97142.25;5049270;28;20178;-69
2021/01/15 08:38:32;;;;;;;12.20;7.97;;;;;;;-2.61;79.31;97144.81;5051382;28;20615;-69
2021/01/15 08:40:59;;;;;;;11.93;7.73;;;;;;;-2.85;80.42;97141.03;5050997;28;20211;-71
2021/01/15 08:43:25;;;;;;;9.00;6.67;;;;;;;-2.78;80.84;97147.22;5051303;28;20185;-70
2021/01/15 08:45:51;;;;;;;12.00;7.90;;;;;;;-2.57;81.54;97150.50;5049445;28;20662;-69
2021/01/15 08:48:16;;;;;;;9.10;6.57;;;;;;;-2.69;80.49;97152.38;5051247;28;20244;-69
2021/01/15 08:50:42;;;;;;;16.10;7.67;;;;;;;-3.03;81.33;97159.66;5050047;28;20236;-68
2021/01/15 08:53:10;;;;;;;13.83;7.43;;;;;;;-2.86;80.83;97155.63;5051907;28;20209;-70
2021/01/15 08:55:40;;;;;;;12.40;7.93;;;;;;;-2.75;80.82;97165.75;5050957;28;20190;-74
2021/01/15 08:58:06;;;;;;;12.80;7.20;;;;;;;-2.69;80.68;97169.53;5051058;28;20214;-71
2021/01/15 09:00:34;;;;;;;10.17;7.30;;;;;;;-2.77;80.16;97169.38;5050491;28;20692;-71
2021/01/15 09:03:03;;;;;;;9.87;7.13;;;;;;;-2.53;79.79;97173.16;5051358;28;20192;-68
2021/01/15 09:05:31;;;;;;;12.13;7.70;;;;;;;-2.10;79.30;97172.72;5051619;28;20186;-70
2021/01/15 09:08:02;;;;;;;12.87;7.53;;;;;;;-2.04;77.80;97180.81;5050466;28;20186;-70
2021/01/15 09:10:27;;;;;;;11.23;7.47;;;;;;;-1.81;77.72;97177.78;5050759;28;20718;-71
2021/01/15 09:12:55;;;;;;;12.87;7.30;;;;;;;-1.82;76.66;97180.47;5050307;28;20289;-70
2021/01/15 09:15:25;;;;;;;10.77;7.60;;;;;;;-1.67;76.99;97187.59;5050659;28;20186;-69
2021/01/15 09:17:52;;;;;;;10.87;7.43;;;;;;;-1.60;75.90;97182.69;5016024;28;20186;-71
2021/01/15 09:20:18;;;;;;;11.20;7.87;;;;;;;-1.63;75.04;97192.47;5051375;28;20646;-69
2021/01/15 09:22:44;;;;;;;9.27;7.40;;;;;;;-1.54;75.53;97195.00;5043941;28;20712;-70
2021/01/15 09:25:14;;;;;;;10.40;7.67;;;;;;;-1.60;74.70;97194.75;5041940;28;20187;-69
2021/01/15 09:27:40;;;;;;;10.30;7.43;;;;;;;-1.70;75.54;97193.03;5044206;28;20186;-69
2021/01/15 09:30:06;;;;;;;12.67;7.83;;;;;;;-1.44;75.12;97197.50;5050761;28;20265;-69
2021/01/15 09:32:32;;;;;;;10.47;7.80;;;;;;;-1.40;74.75;97204.00;5050569;28;20197;-71
2021/01/15 09:34:57;;;;;;;9.37;7.47;;;;;;;-1.54;75.49;97207.03;5050481;28;20182;-68
2021/01/15 09:37:23;;;;;;;13.73;8.13;;;;;;;-1.40;74.81;97207.41;5050222;28;20231;-68
2021/01/15 09:39:48;;;;;;;11.87;7.77;;;;;;;-1.38;74.72;97205.47;5049422;28;20277;-69
2021/01/15 09:42:14;;;;;;;12.27;7.90;;;;;;;-1.41;74.57;97212.66;5050580;28;20277;-69
2021/01/15 09:44:40;;;;;;;10.07;7.23;;;;;;;-1.47;75.30;97214.03;5049803;28;20191;-68
2021/01/15 09:47:06;;;;;;;11.53;7.97;;;;;;;-1.32;74.90;97219.53;5050776;28;20174;-69
2021/01/15 09:49:32;;;;;;;13.17;7.53;;;;;;;-1.31;74.51;97218.56;5050593;28;20186;-74
2021/01/15 09:52:02;;;;;;;10.13;7.83;;;;;;;-1.30;74.61;97222.78;5050663;28;20201;-70
2021/01/15 09:54:30;;;;;;;9.93;7.20;;;;;;;-1.31;75.34;97236.56;5050135;28;20529;-69
2021/01/15 09:56:56;;;;;;;11.90;7.20;;;;;;;-1.19;74.63;97230.31;5049968;28;20209;-69
2021/01/15 09:59:21;;;;;;;10.40;7.40;;;;;;;-1.41;75.08;97233.22;5050992;28;20255;-68
2021/01/15 10:01:47;;;;;;;13.53;7.07;;;;;;;-1.36;74.69;97238.75;5050029;28;20526;-69
2021/01/15 10:04:14;;;;;;;10.13;7.20;;;;;;;-1.41;75.50;97235.81;5033128;28;20607;-68
2021/01/15 10:06:42;;;;;;;11.17;7.37;;;;;;;-1.27;75.06;97236.13;5049579;28;20189;-72
2021/01/15 10:09:09;;;;;;;10.43;7.10;;;;;;;-1.38;74.50;97245.78;5041060;28;20189;-70
2021/01/15 10:11:37;;;;;;;8.03;6.77;;;;;;;-1.43;74.57;97240.25;5047133;28;20210;-70
2021/01/15 10:14:04;;;;;;;9.50;7.03;;;;;;;-1.35;75.17;97248.09;5043678;28;20328;-69
2021/01/15 10:16:30;;;;;;;12.07;7.40;;;;;;;-1.35;75.30;97245.53;5051619;28;20190;-69
2021/01/15 10:18:57;;;;;;;11.97;7.70;;;;;;;-1.45;75.35;97249.91;5053313;28;20210;-68
2021/01/15 10:21:30;;;;;;;10.77;7.47;;;;;;;-1.62;75.70;97242.91;5057119;28;20185;-70
2021/01/15 10:23:56;;;;;;;11.17;6.83;;;;;;;-1.36;74.92;97244.72;5057816;28;20680;-69
2021/01/15 10:26:27;;;;;;;10.57;7.43;;;;;;;-1.36;75.75;97246.47;5052941;28;20237;-70
2021/01/15 10:28:57;;;;;;;9.17;7.10;;;;;;;-1.29;74.26;97250.91;5045738;28;20181;-68
2021/01/15 10:31:24;;;;;;;10.83;7.67;;;;;;;-1.30;74.91;97254.44;5050849;28;20247;-69
2021/01/15 10:33:50;;;;;;;10.63;7.80;;;;;;;-1.51;75.13;97251.25;5050924;28;20220;-68
2021/01/15 10:36:15;;;;;;;11.00;7.80;;;;;;;-1.41;74.41;97254.59;5053528;28;20178;-69
2021/01/15 10:38:41;;;;;;;11.10;7.43;;;;;;;-1.51;75.50;97248.69;5044227;28;20642;-69
2021/01/15 10:41:06;;;;;;;12.30;7.90;;;;;;;-1.60;75.45;97259.78;5048726;28;20538;-69
2021/01/15 10:43:31;;;;;;;10.30;7.37;;;;;;;-1.58;75.42;97246.81;5052056;28;20280;-75
2021/01/15 10:45:57;;;;;;;11.17;7.53;;;;;;;-1.47;75.58;97252.59;5053224;28;20618;-68
2021/01/15 10:48:22;;;;;;;9.53;6.77;;;;;;;-1.52;75.25;97249.63;5053633;28;20182;-68
2021/01/15 10:50:48;;;;;;;12.23;7.57;;;;;;;-1.48;75.70;97250.16;5052700;28;20538;-68
2021/01/15 10:53:13;;;;;;;9.47;6.97;;;;;;;-1.44;74.52;97249.72;5032852;28;20375;-74
2021/01/15 10:55:38;;;;;;;11.70;8.00;;;;;;;-1.42;74.75;97247.03;5056697;28;20200;-69
2021/01/15 10:58:05;;;;;;;10.93;7.70;;;;;;;-1.23;74.82;97253.88;5052914;28;20208;-67
2021/01/15 11:00:31;;;;;;;10.33;7.67;;;;;;;-0.96;74.64;97252.13;5045638;28;20178;-75
2021/01/15 11:02:56;;;;;;;15.33;8.23;;;;;;;-0.76;73.63;97250.25;5044673;28;20201;-68
2021/01/15 11:05:22;;;;;;;14.37;8.40;;;;;;;-0.79;73.59;97258.25;5052008;28;20189;-67
2021/01/15 11:07:47;;;;;;;12.10;8.80;;;;;;;-1.05;74.43;97263.25;5048604;28;20630;-67
2021/01/15 11:10:13;;;;;;;10.80;7.60;;;;;;;-0.92;74.22;97263.75;5051728;28;20553;-68
2021/01/15 11:12:40;;;;;;;9.73;7.43;;;;;;;-0.78;73.19;97259.84;5051909;28;20201;-67
2021/01/15 11:15:06;;;;;;;14.10;8.60;;;;;;;-0.86;73.63;97260.59;5051181;28;20574;-68
2021/01/15 11:17:31;;;;;;;11.40;7.97;;;;;;;-0.73;73.29;97260.25;5052724;28;20217;-74
2021/01/15 11:19:57;;;;;;;10.33;7.40;;;;;;;-0.62;72.62;97260.06;5051818;28;20229;-67
2021/01/15 11:22:22;;;;;;;10.50;7.70;;;;;;;-0.68;72.24;97262.41;5052702;28;20201;-67
2021/01/15 11:24:48;;;;;;;9.63;7.13;;;;;;;-0.68;72.19;97265.78;5050391;28;20213;-68
2021/01/15 11:27:13;;;;;;;13.27;8.43;;;;;;;-0.75;72.14;97281.94;5052627;28;20222;-68
2021/01/15 11:29:38;;;;;;;9.73;7.03;;;;;;;-0.79;72.95;97275.47;5052268;28;20202;-68
2021/01/15 11:32:04;;;;;;;13.47;8.37;;;;;;;-0.92;73.81;97270.63;5052956;28;20558;-67
2021/01/15 11:34:30;;;;;;;10.17;8.03;;;;;;;-0.82;73.89;97265.44;5053141;28;20194;-68
2021/01/15 11:36:55;;;;;;;11.10;8.10;;;;;;;-0.77;73.58;97263.25;5052424;28;20245;-67
2021/01/15 11:39:21;;;;;;;15.07;8.40;;;;;;;-0.75;73.60;97264.72;5052721;28;20181;-68